Time;durP1;ratioP1;P1;durP2;ratioP2;P2;SDS_P1;SDS_P2;PMS_P1;PMS_P2;Temp;Humidity;BMP_temperature;BMP_pressure;BME280_temperature;BME280_humidity;BME280_pressure;Samples;Min_cycle;Max_cycle;Signal;HPM_P1;HPM_P2
2022/01/25 00:32:10;;;;;;;12.35;6.22;;;;;;;-4.96;54.75;101255.75;5052603;28;20028;-49
2022/01/25 00:34:35;;;;;;;11.23;5.72;;;;;;;-4.85;54.01;101261.34;5052192;28;20412;-49
2022/01/25 00:37:01;;;;;;;13.32;6.30;;;;;;;-4.75;54.41;101256.56;5052675;28;20027;-50
2022/01/25 00:39:26;;;;;;;11.75;5.60;;;;;;;-4.96;54.89;101258.34;5052416;28;20029;-51
2022/01/25 00:41:52;;;;;;;12.52;6.28;;;;;;;-4.71;55.29;101263.31;5052238;28;20055;-48
2022/01/25 00:44:17;;;;;;;14.32;6.53;;;;;;;-4.99;54.93;101274.06;5051621;28;20029;-48
2022/01/25 00:46:43;;;;;;;14.38;6.15;;;;;;;-4.88;54.68;101264.06;5051603;28;20028;-48
2022/01/25 00:49:09;;;;;;;12.02;5.93;;;;;;;-5.02;54.99;101262.06;5051740;28;20044;-51
2022/01/25 00:51:57;;;;;;;12.65;6.30;;;;;;;-4.92;55.65;101255.53;5052218;28;20175;-50
2022/01/25 00:56:49;;;;;;;13.48;5.88;;;;;;;-5.12;54.95;101259.03;5051815;28;20449;-50
2022/01/25 00:59:19;;;;;;;12.45;5.80;;;;;;;-5.03;55.03;101260.38;5051534;28;20689;-49
2022/01/25 01:01:46;;;;;;;11.25;5.53;;;;;;;-5.35;55.12;101256.53;5050599;28;20024;-48
2022/01/25 01:04:11;;;;;;;13.20;5.80;;;;;;;-5.18;54.72;101259.28;5051910;28;20036;-46
2022/01/25 01:06:38;;;;;;;10.25;5.43;;;;;;;-5.28;54.72;101255.38;5051718;28;20094;-49
2022/01/25 01:09:07;;;;;;;12.10;6.50;;;;;;;-5.14;55.04;101255.66;5051544;28;20170;-48
2022/01/25 01:11:39;;;;;;;13.73;6.03;;;;;;;-5.36;55.82;101260.06;5052030;28;20036;-49
2022/01/25 01:48:07;;;;;;;14.90;5.97;;;;;;;-5.14;54.46;101218.44;5031433;28;20030;-36
2022/01/25 01:50:35;;;;;;;16.73;6.47;;;;;;;-4.73;52.79;101219.22;5043029;28;20163;-35
2022/01/25 01:53:02;;;;;;;11.45;5.22;;;;;;;-5.04;53.84;101218.91;5050474;28;20056;-36
2022/01/25 01:55:28;;;;;;;13.43;5.95;;;;;;;-4.97;53.46;101220.31;5051038;28;20086;-36
2022/01/25 01:57:54;;;;;;;11.35;5.72;;;;;;;-5.04;54.13;101218.91;5050937;28;20024;-35
2022/01/25 02:00:23;;;;;;;11.45;5.38;;;;;;;-5.18;52.89;101207.38;5050955;28;20111;-35
2022/01/25 02:02:48;;;;;;;14.90;6.57;;;;;;;-5.25;53.39;101210.31;5050812;28;20020;-35
2022/01/25 02:05:13;;;;;;;15.70;6.53;;;;;;;-5.08;53.22;101209.53;5050838;28;20040;-35
2022/01/25 02:07:39;;;;;;;11.77;5.63;;;;;;;-5.31;53.92;101216.59;5050527;28;20479;-35
2022/01/25 02:10:05;;;;;;;12.18;6.07;;;;;;;-5.34;54.74;101206.34;5049915;28;20053;-36
2022/01/25 02:12:31;;;;;;;11.98;6.15;;;;;;;-4.93;53.73;101214.06;5050533;28;20020;-36
2022/01/25 02:14:56;;;;;;;12.05;5.22;;;;;;;-5.17;54.03;101210.81;5050615;28;20032;-36
2022/01/25 02:22:54;;;;;;;11.73;4.57;;;;;;;-4.99;53.01;101204.81;5050434;28;20473;-36
2022/01/25 02:25:19;;;;;;;12.90;5.32;;;;;;;-5.03;53.28;101205.00;5050225;28;20043;-35
2022/01/25 02:27:45;;;;;;;9.02;4.50;;;;;;;-5.38;53.72;101208.22;5050547;28;20021;-35
2022/01/25 02:30:11;;;;;;;10.57;5.10;;;;;;;-5.06;53.07;101200.78;5050610;28;20052;-35
2022/01/25 02:32:36;;;;;;;12.23;5.75;;;;;;;-4.79;52.93;101193.53;5050228;28;20085;-35
2022/01/25 02:35:02;;;;;;;12.15;5.32;;;;;;;-5.03;52.93;101189.41;5050523;28;20033;-36
2022/01/25 02:37:28;;;;;;;13.15;5.63;;;;;;;-5.02;53.46;101193.72;5050276;28;20021;-35
2022/01/25 02:39:53;;;;;;;11.18;5.28;;;;;;;-5.21;52.94;101185.91;5050707;28;20045;-36
2022/01/25 02:42:19;;;;;;;11.55;5.47;;;;;;;-5.06;53.78;101186.94;5050161;28;20036;-36
2022/01/25 02:44:45;;;;;;;10.52;4.95;;;;;;;-5.21;53.48;101189.31;5050452;28;20036;-36
2022/01/25 02:49:55;;;;;;;9.02;4.55;;;;;;;-5.28;53.14;101184.47;5049653;28;20109;-36
2022/01/25 02:52:20;;;;;;;12.00;5.22;;;;;;;-5.10;52.07;101188.88;5050602;28;20029;-35
2022/01/25 02:54:46;;;;;;;10.50;4.72;;;;;;;-5.31;52.64;101180.25;5050295;28;20029;-35
2022/01/25 02:57:12;;;;;;;11.85;4.93;;;;;;;-5.27;52.82;101180.94;5050525;28;20027;-35
2022/01/25 02:59:38;;;;;;;9.30;5.05;;;;;;;-4.90;52.33;101174.97;5050270;28;20049;-36
2022/01/25 03:02:03;;;;;;;11.82;4.95;;;;;;;-4.89;51.68;101175.81;5050584;28;20025;-35
2022/01/25 03:04:29;;;;;;;11.55;4.97;;;;;;;-4.93;52.83;101175.09;5051070;28;20025;-35
2022/01/25 03:06:55;;;;;;;12.15;5.35;;;;;;;-5.10;51.79;101155.13;5054001;28;20037;-36
2022/01/25 03:09:20;;;;;;;12.50;5.05;;;;;;;-5.31;52.56;101169.88;5052633;28;20045;-36
2022/01/25 03:11:49;;;;;;;9.02;4.72;;;;;;;-5.38;53.40;101163.25;5053745;28;20083;-36
2022/01/25 03:14:14;;;;;;;8.88;5.03;;;;;;;-5.63;53.52;101151.34;5053936;28;20036;-35
2022/01/25 03:16:45;;;;;;;12.23;4.85;;;;;;;-5.41;53.09;101153.00;5054144;28;20013;-36
2022/01/25 03:24:56;;;;;;;8.40;4.40;;;;;;;-5.27;52.04;101140.28;5035835;28;20046;-36
2022/01/25 03:27:21;;;;;;;8.95;4.50;;;;;;;-5.34;52.12;101131.06;5033742;28;20075;-36
2022/01/25 03:29:47;;;;;;;9.82;4.47;;;;;;;-5.74;52.68;101128.44;5033697;28;20041;-36
2022/01/25 03:32:12;;;;;;;8.80;4.72;;;;;;;-5.63;52.58;101122.81;5033975;28;20037;-36
2022/01/25 03:34:37;;;;;;;9.15;4.68;;;;;;;-5.57;52.62;101119.09;5033736;28;20519;-36
2022/01/25 03:37:03;;;;;;;9.02;4.85;;;;;;;-5.41;52.78;101119.28;5033676;28;20044;-37
2022/01/25 03:39:29;;;;;;;9.52;4.60;;;;;;;-5.84;54.68;101109.00;5033541;28;20033;-35
2022/01/25 03:41:54;;;;;;;10.27;4.72;;;;;;;-5.55;52.94;101110.34;5033530;28;20041;-35
2022/01/25 03:44:20;;;;;;;9.13;4.22;;;;;;;-5.27;52.46;101097.88;5033529;28;20029;-36
2022/01/25 03:51:58;;;;;;;11.10;5.10;;;;;;;-4.90;52.35;101089.28;5053247;28;20031;-36
2022/01/25 03:54:23;;;;;;;11.90;4.80;;;;;;;-4.98;50.85;101086.19;5053022;28;20634;-36
2022/01/25 03:56:48;;;;;;;8.88;4.65;;;;;;;-4.84;50.51;101086.38;5053384;28;20036;-36
2022/01/25 03:59:14;;;;;;;9.75;4.47;;;;;;;-4.91;49.76;101083.25;5053070;28;20040;-36
2022/01/25 04:01:39;;;;;;;8.45;3.90;;;;;;;-4.85;50.67;101081.28;5053144;28;20028;-35
2022/01/25 04:04:12;;;;;;;7.55;3.72;;;;;;;-5.46;50.25;101070.19;5051660;28;20053;-36
2022/01/25 04:06:37;;;;;;;7.35;3.50;;;;;;;-5.31;51.29;101079.88;5053027;28;20039;-36
2022/01/25 04:09:06;;;;;;;7.25;3.58;;;;;;;-5.50;51.38;101071.25;5052346;28;20049;-36
2022/01/25 04:11:32;;;;;;;7.70;3.72;;;;;;;-5.42;50.99;101074.31;5051938;28;20413;-36
2022/01/25 04:13:58;;;;;;;10.20;4.00;;;;;;;-5.36;51.18;101074.03;5051662;28;20031;-36
2022/01/25 04:16:30;;;;;;;8.48;4.13;;;;;;;-5.45;51.37;101061.47;5051222;28;20025;-36
2022/01/25 04:19:24;;;;;;;7.10;4.00;;;;;;;-5.34;51.30;101066.19;5052874;28;20040;-36
2022/01/25 04:27:12;;;;;;;8.63;4.22;;;;;;;-5.09;50.92;101060.72;5032590;28;20036;-35
2022/01/25 04:29:37;;;;;;;8.02;4.15;;;;;;;-4.92;50.32;101063.38;5032585;28;20025;-35
2022/01/25 04:32:06;;;;;;;8.60;4.40;;;;;;;-5.26;50.17;101061.50;5032697;28;20098;-35
2022/01/25 04:53:10;;;;;;;6.22;3.55;;;;;;;-5.20;49.17;101061.19;5032306;28;20331;-47
2022/01/25 04:55:38;;;;;;;8.50;4.30;;;;;;;-4.98;51.05;101060.25;5032189;28;20167;-49
2022/01/25 04:58:12;;;;;;;7.53;4.10;;;;;;;-5.11;49.76;101060.78;5031988;28;20025;-47
2022/01/25 05:00:38;;;;;;;10.30;4.55;;;;;;;-5.02;49.70;101062.13;5032008;28;20091;-48
2022/01/25 05:03:18;;;;;;;9.68;4.30;;;;;;;-5.08;49.38;101052.03;5031969;28;20393;-36
2022/01/25 05:06:06;;;;;;;7.27;4.40;;;;;;;-5.14;50.78;101052.28;5031872;28;20488;-36
2022/01/25 05:08:38;;;;;;;10.38;3.92;;;;;;;-5.07;48.96;101060.66;5031765;28;20106;-36
2022/01/25 05:11:28;;;;;;;10.60;4.15;;;;;;;-4.74;49.08;101055.63;5031977;28;20037;-36
2022/01/25 05:13:59;;;;;;;7.50;4.05;;;;;;;-5.08;49.60;101053.75;5031810;28;20045;-36
2022/01/25 05:16:29;;;;;;;9.93;4.25;;;;;;;-5.24;49.89;101053.63;5030797;28;20053;-36
2022/01/25 05:19:06;;;;;;;9.32;4.53;;;;;;;-5.20;49.96;101048.22;5033668;28;20021;-36
2022/01/25 05:24:16;;;;;;;9.65;5.03;;;;;;;-5.11;49.74;101058.19;5051459;28;20102;-35
2022/01/25 05:26:41;;;;;;;7.78;4.57;;;;;;;-5.11;50.38;101065.97;5051261;28;20029;-36
2022/01/25 05:29:07;;;;;;;9.57;4.43;;;;;;;-5.28;49.60;101065.06;5050850;28;20455;-36
2022/01/25 05:31:33;;;;;;;13.77;4.40;;;;;;;-5.43;49.31;101064.00;5049290;28;20029;-36
2022/01/25 05:33:58;;;;;;;8.73;4.50;;;;;;;-5.05;48.22;101064.03;5050582;28;20035;-37
2022/01/25 05:36:25;;;;;;;11.45;5.05;;;;;;;-5.34;48.55;101072.22;5050664;28;20381;-36
2022/01/25 05:38:50;;;;;;;12.70;5.00;;;;;;;-5.18;48.71;101069.78;5050516;28;20112;-48
2022/01/25 05:41:16;;;;;;;12.95;4.47;;;;;;;-5.05;48.01;101075.25;5043894;28;20092;-50
2022/01/25 05:46:44;;;;;;;8.68;4.47;;;;;;;-5.52;48.85;101073.03;5030274;28;20032;-50
2022/01/25 05:49:09;;;;;;;11.52;3.58;;;;;;;-5.30;48.70;101075.53;5031349;28;20033;-49
2022/01/25 05:51:34;;;;;;;8.65;3.97;;;;;;;-5.53;49.56;101074.78;5050061;28;20044;-36
2022/01/25 05:54:00;;;;;;;9.27;4.07;;;;;;;-5.28;48.74;101088.44;5050299;28;20033;-36
2022/01/25 05:56:25;;;;;;;39.22;15.32;;;;;;;-5.22;48.36;101080.38;5050229;28;20029;-36
2022/01/25 05:58:51;;;;;;;25.88;9.38;;;;;;;-4.96;49.98;101082.63;5046222;28;20026;-36
2022/01/25 06:01:18;;;;;;;11.10;4.05;;;;;;;-4.69;49.06;101090.03;5030416;28;20036;-36
2022/01/25 06:03:45;;;;;;;9.98;3.90;;;;;;;-2.37;76.41;101085.78;5031437;28;20029;-36
2022/01/25 06:06:11;;;;;;;9.20;4.20;;;;;;;-2.16;47.50;101080.25;5045152;28;20056;-36
2022/01/25 06:08:36;;;;;;;9.40;4.28;;;;;;;-3.35;45.23;101068.56;5049391;28;20482;-36
2022/01/25 06:11:02;;;;;;;7.43;4.28;;;;;;;-3.20;44.24;101061.72;5049925;28;20032;-36
2022/01/25 06:13:27;;;;;;;17.90;8.38;;;;;;;-3.43;44.92;101064.69;5050063;28;20032;-36
2022/01/25 06:15:53;;;;;;;10.23;5.00;;;;;;;-3.58;44.28;101064.59;5050357;28;20473;-37
2022/01/25 06:18:18;;;;;;;8.82;4.53;;;;;;;-3.79;45.29;101056.13;5050176;28;20024;-36
2022/01/25 06:20:43;;;;;;;10.93;4.55;;;;;;;-3.36;43.77;101047.81;5050039;28;20033;-36
2022/01/25 06:23:09;;;;;;;11.88;4.53;;;;;;;-3.39;43.15;101055.78;5049530;28;20028;-37
2022/01/25 06:25:34;;;;;;;9.70;4.25;;;;;;;-3.11;42.59;101052.53;5047481;28;20037;-36
2022/01/25 06:28:00;;;;;;;8.70;4.53;;;;;;;-2.64;45.02;101043.88;5049469;28;20040;-37
2022/01/25 06:30:25;;;;;;;9.00;4.82;;;;;;;-2.11;42.09;101049.53;5049111;28;20620;-36
2022/01/25 06:32:51;;;;;;;12.50;6.30;;;;;;;-2.08;41.89;101049.34;5048733;28;20031;-37
2022/01/25 06:35:17;;;;;;;7.32;4.40;;;;;;;-1.86;41.00;101064.56;5049167;28;20025;-37
2022/01/25 06:37:42;;;;;;;14.07;6.40;;;;;;;-1.52;38.97;101057.34;5049512;28;20490;-37
2022/01/25 06:40:08;;;;;;;8.02;4.78;;;;;;;-1.84;39.94;101054.06;5053654;28;20032;-36
2022/01/25 06:42:35;;;;;;;9.63;5.00;;;;;;;-1.69;39.98;101063.56;5053473;28;20021;-36
2022/01/25 06:45:03;;;;;;;11.18;4.88;;;;;;;-1.67;39.26;101048.66;5053939;28;20028;-37
2022/01/25 06:47:29;;;;;;;9.82;5.30;;;;;;;-2.00;40.12;101047.13;5053723;28;20040;-37
2022/01/25 06:49:55;;;;;;;9.20;4.75;;;;;;;-2.16;40.59;101043.75;5053999;28;20029;-37
2022/01/25 06:52:20;;;;;;;12.40;5.20;;;;;;;-1.70;39.77;101046.22;5053544;28;20103;-37
2022/01/25 06:54:46;;;;;;;9.18;4.28;;;;;;;-1.99;40.62;101048.81;5053487;28;20020;-36
2022/01/25 06:57:11;;;;;;;12.57;4.88;;;;;;;-2.08;41.14;101054.56;5051784;28;20374;-36
2022/01/25 06:59:37;;;;;;;10.52;5.65;;;;;;;-1.48;40.63;101051.00;5053083;28;20469;-35
2022/01/25 07:02:03;;;;;;;16.92;5.55;;;;;;;-1.08;39.35;101050.31;5053222;28;20078;-36
2022/01/25 07:04:28;;;;;;;10.80;5.20;;;;;;;-1.43;39.30;101050.69;5053817;28;20033;-37
2022/01/25 07:06:54;;;;;;;11.15;4.82;;;;;;;-1.88;40.06;101042.94;5053171;28;20131;-37
2022/01/25 07:09:19;;;;;;;11.52;5.40;;;;;;;-1.75;42.12;101042.19;5053012;28;20056;-36
2022/01/25 07:11:45;;;;;;;13.27;5.35;;;;;;;-1.68;40.87;101044.34;5053139;28;20029;-36
2022/01/25 07:14:10;;;;;;;10.52;5.35;;;;;;;-1.82;40.41;101039.13;5053212;28;20037;-36
2022/01/25 07:16:36;;;;;;;13.35;5.68;;;;;;;-1.26;40.65;101055.72;5053122;28;20039;-37
2022/01/25 07:19:02;;;;;;;11.13;6.20;;;;;;;-1.02;39.97;101062.97;5053094;28;20024;-37
2022/01/25 07:21:28;;;;;;;14.60;6.25;;;;;;;-1.14;39.90;101040.22;5052994;28;20052;-37
2022/01/25 07:23:54;;;;;;;12.27;6.30;;;;;;;-1.35;40.36;101048.47;5052977;28;20039;-37
2022/01/25 07:26:19;;;;;;;16.38;5.55;;;;;;;-1.31;41.17;101038.69;5053363;28;20033;-36
2022/01/25 07:28:46;;;;;;;16.00;6.40;;;;;;;-1.40;41.33;101055.75;5053125;28;20492;-36
2022/01/25 07:31:12;;;;;;;12.63;5.78;;;;;;;-1.14;40.94;101053.28;5053333;28;20112;-38
2022/01/25 07:33:37;;;;;;;14.23;6.20;;;;;;;-1.40;41.77;101047.91;5051752;28;20071;-37
2022/01/25 07:36:05;;;;;;;13.70;6.80;;;;;;;-0.77;40.55;101053.59;5051522;28;20040;-37
2022/01/25 07:38:30;;;;;;;11.43;6.45;;;;;;;-0.63;40.55;101059.59;5053595;28;20377;-38
2022/01/25 07:40:56;;;;;;;13.70;6.68;;;;;;;-1.15;40.79;101057.66;5052839;28;20465;-37
2022/01/25 07:43:21;;;;;;;14.35;5.75;;;;;;;-0.54;39.84;101046.88;5052119;28;20032;-36
2022/01/25 07:45:52;;;;;;;14.68;6.70;;;;;;;-0.97;40.39;101060.91;5051994;28;20054;-37
2022/01/25 07:48:17;;;;;;;13.63;6.47;;;;;;;-0.46;39.22;101049.81;5051975;28;20474;-37
2022/01/25 07:50:42;;;;;;;14.52;6.25;;;;;;;-0.66;39.43;101043.28;5050960;28;20044;-37
2022/01/25 07:53:08;;;;;;;13.65;7.13;;;;;;;-0.54;39.73;101042.47;5052625;28;20033;-37
2022/01/25 07:55:34;;;;;;;15.65;7.53;;;;;;;0.09;38.58;101048.75;5050662;28;20044;-36
2022/01/25 07:57:59;;;;;;;15.13;7.18;;;;;;;0.27;37.99;101044.06;5049226;28;20032;-37
2022/01/25 08:00:25;;;;;;;16.73;7.68;;;;;;;0.07;38.42;101057.66;5051035;28;20029;-36
2022/01/25 08:02:51;;;;;;;18.20;7.80;;;;;;;-0.30;38.54;101049.66;5051554;28;20396;-37
2022/01/25 08:05:17;;;;;;;22.65;8.50;;;;;;;-0.43;38.94;101052.22;5050793;28;20032;-38
2022/01/25 08:07:43;;;;;;;20.05;8.25;;;;;;;-0.25;38.76;101048.41;5052053;28;20500;-37
2022/01/25 08:10:09;;;;;;;20.67;9.00;;;;;;;0.47;37.58;101047.06;5051624;28;20084;-37
2022/01/25 08:12:34;;;;;;;24.15;11.07;;;;;;;0.59;37.61;101043.59;5051894;28;20039;-38
2022/01/25 08:15:02;;;;;;;20.38;10.63;;;;;;;1.00;36.86;101028.53;5051654;28;20033;-37
2022/01/25 08:17:28;;;;;;;15.68;7.28;;;;;;;1.08;36.56;101044.53;5051710;28;20052;-37
2022/01/25 08:19:53;;;;;;;12.10;6.82;;;;;;;1.13;36.51;101045.88;5051754;28;20055;-37
2022/01/25 08:22:19;;;;;;;14.20;7.13;;;;;;;1.17;35.71;101042.09;5051669;28;20025;-37
2022/01/25 08:24:45;;;;;;;11.15;5.70;;;;;;;0.54;36.30;101035.25;5051992;28;20025;-38
2022/01/25 08:27:11;;;;;;;12.43;5.72;;;;;;;0.16;37.07;101029.06;5050430;28;20047;-37
2022/01/25 08:29:37;;;;;;;10.63;6.25;;;;;;;0.43;37.45;101030.72;5051878;28;20107;-36
2022/01/25 08:32:03;;;;;;;12.95;6.35;;;;;;;0.40;36.74;101041.44;5051594;28;20477;-36
2022/01/25 08:34:28;;;;;;;11.35;6.20;;;;;;;0.14;37.77;101028.34;5050746;28;20511;-37
2022/01/25 08:36:55;;;;;;;14.23;6.93;;;;;;;0.59;37.73;101027.88;5051875;28;20044;-36
2022/01/25 08:39:21;;;;;;;14.30;6.82;;;;;;;0.14;38.03;101030.97;5051777;28;20078;-36
2022/01/25 08:41:46;;;;;;;9.60;5.35;;;;;;;0.30;37.85;101017.66;5051582;28;20021;-37
2022/01/25 08:44:12;;;;;;;13.05;6.28;;;;;;;0.90;36.91;101028.34;5051775;28;20029;-39
2022/01/25 08:46:38;;;;;;;11.23;6.25;;;;;;;0.83;37.40;101021.88;5051473;28;20036;-37
2022/01/25 08:49:03;;;;;;;12.73;7.07;;;;;;;1.01;36.90;101010.06;5051410;28;20028;-37
2022/01/25 08:51:29;;;;;;;12.75;6.13;;;;;;;0.85;36.45;101006.88;5051416;28;20036;-38
2022/01/25 08:53:55;;;;;;;17.38;7.43;;;;;;;0.63;36.47;101005.78;5050285;28;20029;-37
2022/01/25 08:56:20;;;;;;;16.02;8.65;;;;;;;0.82;36.93;101010.56;5051707;28;20105;-38
2022/01/25 08:58:46;;;;;;;17.70;8.57;;;;;;;0.79;37.06;100997.66;5051474;28;20497;-38
2022/01/25 09:01:11;;;;;;;16.08;7.28;;;;;;;0.95;36.62;100995.63;5051104;28;20025;-39
2022/01/25 09:03:37;;;;;;;15.15;6.90;;;;;;;0.88;36.24;100985.69;5050352;28;20033;-35
2022/01/25 09:06:03;;;;;;;11.48;6.60;;;;;;;0.93;36.35;100987.03;5051295;28;20044;-39
2022/01/25 09:08:29;;;;;;;12.38;6.20;;;;;;;0.96;36.11;100972.84;5051086;28;20083;-37
2022/01/25 09:10:59;;;;;;;17.33;7.03;;;;;;;0.63;36.73;100984.81;5051002;28;20571;-38
2022/01/25 09:13:25;;;;;;;13.82;7.07;;;;;;;0.51;37.70;100967.34;5051243;28;20139;-38
2022/01/25 09:15:50;;;;;;;13.05;7.10;;;;;;;1.12;36.40;100970.81;5051131;28;20103;-38
2022/01/25 09:18:16;;;;;;;13.90;7.32;;;;;;;1.14;36.86;100958.41;5051439;28;20104;-38
2022/01/25 09:20:41;;;;;;;14.23;7.20;;;;;;;1.08;36.45;100958.00;5049666;28;20036;-37
2022/01/25 09:23:07;;;;;;;14.18;6.82;;;;;;;0.94;37.44;100956.41;5050639;28;20107;-49
2022/01/25 09:25:32;;;;;;;13.63;7.65;;;;;;;1.13;37.25;100953.28;5049398;28;20067;-49
2022/01/25 09:27:58;;;;;;;14.35;7.88;;;;;;;1.75;36.21;100953.00;5050958;28;20171;-52
2022/01/25 09:30:24;;;;;;;12.73;7.53;;;;;;;1.32;36.18;100935.22;5050054;28;20029;-51
2022/01/25 09:32:49;;;;;;;15.93;6.60;;;;;;;0.89;37.08;100945.41;5050569;28;20153;-50
2022/01/25 09:35:15;;;;;;;11.43;6.28;;;;;;;1.23;35.68;100922.78;5050883;28;20048;-52
2022/01/25 09:37:40;;;;;;;16.10;7.05;;;;;;;1.10;36.56;100893.19;5049442;28;20449;-50
2022/01/25 09:40:06;;;;;;;12.73;7.03;;;;;;;1.03;35.87;100926.91;5050307;28;20025;-51
2022/01/25 09:42:32;;;;;;;15.10;7.78;;;;;;;1.31;35.82;100917.81;5050758;28;20062;-53
2022/01/25 09:44:58;;;;;;;14.68;7.70;;;;;;;1.78;35.53;100915.16;5050774;28;20071;-50
2022/01/25 09:47:23;;;;;;;18.05;7.40;;;;;;;1.92;36.62;100911.47;5050489;28;20338;-49
2022/01/25 09:49:49;;;;;;;16.55;7.88;;;;;;;1.67;35.71;100907.28;5050633;28;20029;-51
2022/01/25 09:52:14;;;;;;;14.00;7.30;;;;;;;1.44;36.13;100907.22;5050263;28;20036;-50
2022/01/25 09:54:41;;;;;;;17.70;6.90;;;;;;;1.46;35.73;100896.63;5049174;28;20029;-50
2022/01/25 09:57:07;;;;;;;13.10;6.70;;;;;;;1.23;35.08;100895.72;5050532;28;20063;-49
2022/01/25 09:59:32;;;;;;;14.43;7.07;;;;;;;1.47;35.57;100883.41;5050479;28;20099;-50
2022/01/25 10:01:58;;;;;;;9.95;5.90;;;;;;;1.39;35.90;100900.66;5050581;28;20029;-49
2022/01/25 10:04:37;;;;;;;15.13;6.78;;;;;;;1.49;35.17;100889.34;5050032;28;20025;-50
2022/01/25 10:07:04;;;;;;;13.30;6.72;;;;;;;1.54;35.81;100884.59;5049790;28;20036;-52
2022/01/25 10:09:30;;;;;;;16.42;7.95;;;;;;;0.86;36.41;100875.72;5050264;28;20057;-52
2022/01/25 10:11:55;;;;;;;16.02;8.27;;;;;;;1.08;36.21;100877.56;5050444;28;20025;-49
2022/01/25 10:14:23;;;;;;;13.57;7.10;;;;;;;1.22;36.54;100866.06;5050067;28;20033;-51
2022/01/25 10:16:53;;;;;;;18.70;9.02;;;;;;;1.28;36.46;100862.97;5050290;28;20036;-51
2022/01/25 10:19:21;;;;;;;;;;;;;;;0.96;36.68;100860.13;5050757;28;20025;-51
2022/01/25 10:21:51;;;;;;;17.80;8.35;;;;;;;0.87;36.75;100858.19;5050273;28;19908;-52
2022/01/25 10:24:24;;;;;;;16.23;8.13;;;;;;;1.37;36.14;100853.56;5050241;28;20119;-52
2022/01/25 10:26:50;;;;;;;14.35;6.75;;;;;;;0.97;35.53;100849.53;5050422;28;20032;-52
2022/01/25 10:29:24;;;;;;;14.30;6.65;;;;;;;0.97;34.72;100848.69;5050213;28;20473;-49
2022/01/25 10:31:56;;;;;;;14.98;7.22;;;;;;;0.96;35.14;100833.91;5048809;28;20503;-51
2022/01/25 10:34:27;;;;;;;12.23;6.22;;;;;;;1.03;34.94;100827.28;5049987;28;20025;-50
2022/01/25 10:36:53;;;;;;;15.48;6.30;;;;;;;1.16;34.63;100830.66;5050207;28;20476;-49
2022/01/25 10:39:23;;;;;;;11.35;5.78;;;;;;;1.41;33.76;100834.03;5049904;28;20111;-52
2022/01/25 10:41:48;;;;;;;11.80;6.15;;;;;;;1.20;33.55;100836.50;5050529;28;20101;-50
2022/01/25 10:44:13;;;;;;;13.02;5.90;;;;;;;1.31;32.74;100825.16;5049970;28;20393;-50
2022/01/25 10:46:39;;;;;;;12.43;6.85;;;;;;;1.41;33.06;100823.53;5050067;28;20052;-51
2022/01/25 10:49:11;;;;;;;10.30;5.72;;;;;;;1.47;33.25;100822.22;5050197;28;20036;-51
2022/01/25 10:51:41;;;;;;;11.20;5.65;;;;;;;1.63;32.29;100816.63;5050083;28;20033;-50
2022/01/25 10:54:13;;;;;;;11.57;5.72;;;;;;;1.59;32.17;100809.94;5050080;28;20485;-51
2022/01/25 10:56:48;;;;;;;14.75;6.05;;;;;;;1.49;32.67;100809.81;5049779;28;20033;-51
2022/01/25 10:59:19;;;;;;;11.77;6.28;;;;;;;1.53;33.21;100801.59;5049618;28;20080;-50
2022/01/25 11:01:52;;;;;;;10.48;5.60;;;;;;;1.12;33.28;100792.50;5049479;28;20108;-47
2022/01/25 11:04:20;;;;;;;13.48;6.32;;;;;;;1.66;33.27;100792.78;5049835;28;20040;-52
2022/01/25 11:06:45;;;;;;;12.15;5.95;;;;;;;1.69;32.67;100789.88;5050076;28;20029;-50
2022/01/25 11:09:12;;;;;;;11.45;5.15;;;;;;;1.49;32.85;100794.91;5048021;28;20199;-51
2022/01/25 11:11:49;;;;;;;12.45;5.70;;;;;;;1.27;32.57;100787.03;5049301;28;20043;-51
2022/01/25 11:16:58;;;;;;;13.95;7.32;;;;;;;1.95;32.51;100762.41;5050308;28;20039;-52
2022/01/25 11:19:24;;;;;;;11.85;6.28;;;;;;;1.77;32.08;100756.00;5049957;28;20025;-49
2022/01/25 11:21:50;;;;;;;11.60;5.53;;;;;;;1.43;32.65;100758.66;5049915;28;20036;-51
2022/01/25 11:24:16;;;;;;;10.98;5.88;;;;;;;1.77;32.39;100750.75;5049147;28;20033;-50
2022/01/25 11:26:42;;;;;;;12.23;5.70;;;;;;;1.59;32.33;100734.69;5052049;28;20029;-49
2022/01/25 11:29:07;;;;;;;13.55;5.38;;;;;;;2.02;31.89;100740.91;5051287;28;20482;-51
2022/01/25 11:31:33;;;;;;;9.27;5.20;;;;;;;2.29;31.20;100730.81;5052913;28;20036;-37
2022/01/25 11:33:58;;;;;;;10.75;5.55;;;;;;;1.84;32.16;100744.06;5035277;28;20028;-38
2022/01/25 11:36:24;;;;;;;8.10;4.45;;;;;;;1.44;31.83;100741.97;5053735;28;20028;-38
2022/01/25 11:38:51;;;;;;;12.27;5.38;;;;;;;1.20;32.11;100739.47;5053671;28;20405;-49
2022/01/25 11:41:18;;;;;;;10.98;5.55;;;;;;;1.78;31.38;100735.84;5052050;28;20048;-37
2022/01/25 11:44:05;;;;;;;10.50;4.82;;;;;;;1.55;31.75;100728.00;5053449;28;20025;-37
2022/01/25 11:46:31;;;;;;;14.77;6.03;;;;;;;1.93;32.62;100729.38;5053409;28;20393;-38
2022/01/25 11:49:14;;;;;;;9.48;4.85;;;;;;;1.83;32.40;100728.41;5053512;28;20067;-38
2022/01/25 11:51:40;;;;;;;11.90;5.00;;;;;;;1.69;31.91;100722.47;5053608;28;20116;-50
2022/01/25 11:54:08;;;;;;;15.88;5.50;;;;;;;2.10;31.38;100713.09;5053245;28;20511;-52
2022/01/25 11:56:34;;;;;;;9.80;4.78;;;;;;;2.05;31.33;100714.41;5050578;28;20131;-37
2022/01/25 11:59:00;;;;;;;11.25;5.53;;;;;;;1.93;30.51;100711.81;5050164;28;20021;-37
2022/01/25 12:01:26;;;;;;;7.25;4.53;;;;;;;1.81;30.35;100712.81;5052313;28;20029;-37
2022/01/25 12:03:55;;;;;;;10.38;5.10;;;;;;;1.78;31.02;100715.69;5051970;28;20037;-37
2022/01/25 12:06:30;;;;;;;9.40;5.28;;;;;;;2.18;30.58;100701.13;5053119;28;20025;-36
2022/01/25 12:11:50;;;;;;;12.00;5.88;;;;;;;2.24;30.61;100696.19;5052952;28;20035;-51
2022/01/25 12:14:51;;;;;;;20.90;8.70;;;;;;;2.37;30.55;100701.28;5052741;28;20032;-49
2022/01/25 12:17:24;;;;;;;17.02;6.32;;;;;;;2.03;31.88;100693.53;5052647;28;20040;-50
2022/01/25 12:19:58;;;;;;;10.00;5.30;;;;;;;2.07;31.88;100689.69;5052926;28;20028;-51
2022/01/25 12:25:13;;;;;;;9.40;4.82;;;;;;;2.34;30.70;100677.88;5050730;28;20480;-38
2022/01/25 12:27:52;;;;;;;10.80;5.40;;;;;;;2.48;31.22;100684.63;5051962;28;20029;-37
2022/01/25 12:30:17;;;;;;;11.68;5.80;;;;;;;2.47;30.91;100682.94;5051988;28;20021;-37
2022/01/25 12:32:59;;;;;;;12.52;6.00;;;;;;;2.34;30.16;100680.50;5051594;28;20028;-38
2022/01/25 12:35:50;;;;;;;10.25;5.20;;;;;;;2.66;31.00;100672.56;5051593;28;20086;-37
2022/01/25 12:38:16;;;;;;;;;;;;;;;2.68;30.76;100672.44;5036363;28;20119;-37
2022/01/25 12:40:42;;;;;;;11.05;5.40;;;;;;;2.24;31.34;100669.91;5052219;28;20325;-37
2022/01/25 12:43:25;;;;;;;12.13;5.13;;;;;;;2.61;31.12;100677.38;5050489;28;20040;-37
2022/01/25 12:45:56;;;;;;;9.75;5.57;;;;;;;2.38;30.81;100665.31;5051421;28;20033;-37
2022/01/25 12:48:25;;;;;;;9.00;4.70;;;;;;;2.43;29.56;100663.16;5050977;28;20100;-38
2022/01/25 12:50:52;;;;;;;10.90;5.60;;;;;;;2.69;29.68;100658.34;5051043;28;20048;-38
2022/01/25 12:53:23;;;;;;;9.77;5.18;;;;;;;2.45;30.55;100650.72;5051454;28;20494;-36
2022/01/25 12:55:51;;;;;;;8.77;5.18;;;;;;;2.37;30.06;100656.59;5051561;28;20017;-38
2022/01/25 12:58:21;;;;;;;9.50;5.28;;;;;;;2.60;30.40;100648.59;5051299;28;20066;-50
2022/01/25 13:00:48;;;;;;;13.57;5.88;;;;;;;2.59;30.30;100657.44;5051431;28;20432;-49
2022/01/25 13:03:15;;;;;;;8.75;4.95;;;;;;;2.52;29.49;100652.69;5051282;28;20024;-52
2022/01/25 13:05:55;;;;;;;9.30;5.45;;;;;;;2.42;29.52;100650.97;5051419;28;20036;-52
2022/01/25 13:08:22;;;;;;;8.45;4.93;;;;;;;2.31;29.62;100649.25;5049683;28;20193;-37
2022/01/25 13:10:49;;;;;;;12.95;5.03;;;;;;;2.06;30.00;100648.66;5050624;28;20068;-37
2022/01/25 13:13:28;;;;;;;9.50;4.65;;;;;;;2.14;30.30;100643.59;5051101;28;20017;-50
2022/01/25 13:15:56;;;;;;;11.52;6.03;;;;;;;2.03;29.54;100629.69;5049779;28;20033;-36
2022/01/25 13:18:26;;;;;;;11.45;5.82;;;;;;;1.95;29.80;100641.66;5051151;28;20017;-37
2022/01/25 13:21:04;;;;;;;13.77;6.05;;;;;;;2.15;30.48;100633.91;5050616;28;20143;-48
2022/01/25 13:23:30;;;;;;;11.05;5.53;;;;;;;2.08;29.82;100638.03;5050778;28;20155;-50
2022/01/25 13:26:08;;;;;;;10.02;5.13;;;;;;;1.80;30.53;100635.03;5049779;28;20020;-53
2022/01/25 13:31:14;;;;;;;9.27;5.32;;;;;;;2.24;30.21;100630.53;5050844;28;20048;-38
2022/01/25 13:33:39;;;;;;;10.40;5.13;;;;;;;1.86;30.38;100620.56;5050206;28;20029;-38